Time;durP1;ratioP1;P1;durP2;ratioP2;P2;SDS_P1;SDS_P2;PMS_P1;PMS_P2;Temp;Humidity;BMP_temperature;BMP_pressure;BME280_temperature;BME280_humidity;BME280_pressure;Samples;Min_cycle;Max_cycle;Signal;HPM_P1;HPM_P2
2022/08/26 00:00:26;;;;;;;;;5.00;3.50;;;;;23.39;56.57;100927.25;5080039;27;45479;-62
2022/08/26 00:08:46;;;;;;;;;3.00;3.00;;;;;23.35;56.79;100917.78;5100714;27;45492;-61
2022/08/26 00:11:20;;;;;;;;;3.50;3.50;;;;;23.41;56.54;100928.00;5064291;27;45597;-62
2022/08/26 00:13:54;;;;;;;;;4.00;4.00;;;;;23.44;56.35;100917.00;5081722;27;45999;-64
2022/08/26 00:19:20;;;;;;;;;5.00;5.00;;;;;23.34;57.27;100926.78;5099703;27;45507;-64
2022/08/26 00:21:55;;;;;;;;;4.25;4.25;;;;;23.28;56.60;100933.53;5064623;27;45479;-63
2022/08/26 00:24:25;;;;;;;;;6.75;6.75;;;;;23.28;57.36;100927.31;5066021;27;45559;-62
2022/08/26 00:26:59;;;;;;;;;4.50;4.50;;;;;23.29;57.62;100923.63;5081646;27;45424;-64
2022/08/26 00:29:41;;;;;;;;;5.50;5.50;;;;;23.29;57.15;100932.56;5082122;27;45538;-64
2022/08/26 00:32:11;;;;;;;;;6.00;5.50;;;;;23.29;57.33;100929.88;5063578;27;45550;-62
2022/08/26 00:38:00;;;;;;;;;5.75;5.75;;;;;23.13;58.06;100927.63;5084872;27;45440;-61
2022/08/26 00:40:39;;;;;;;;;5.00;5.00;;;;;23.19;57.54;100926.25;5038478;27;46292;-62
2022/08/26 00:43:09;;;;;;;;;5.25;5.25;;;;;23.23;57.70;100935.75;5081531;27;45518;-63
2022/08/26 01:02:41;;;;;;;;;5.00;5.00;;;;;23.14;57.72;100939.19;5023836;27;45722;-63
2022/08/26 01:05:10;;;;;;;;;6.25;6.25;;;;;23.19;56.78;100936.16;5082012;27;46866;-63
2022/08/26 01:07:41;;;;;;;;;5.25;5.25;;;;;23.14;58.20;100940.06;5082402;27;45513;-63
2022/08/26 01:10:32;;;;;;;;;6.00;6.00;;;;;23.08;58.09;100927.16;5031216;27;45593;-62
2022/08/26 01:13:02;;;;;;;;;5.25;5.25;;;;;23.14;58.11;100942.72;5031136;27;45448;-62
2022/08/26 01:15:42;;;;;;;;;6.25;6.25;;;;;23.16;57.54;100934.56;5099174;27;46276;-64
2022/08/26 01:18:13;;;;;;;;;7.75;6.75;;;;;23.11;57.93;100926.88;5081184;27;45516;-62
2022/08/26 01:21:26;;;;;;;;;6.25;6.25;;;;;23.15;57.96;100928.31;5081432;27;45499;-62
2022/08/26 01:23:52;;;;;;;;;6.00;6.00;;;;;23.10;58.08;100930.53;4980034;28;45560;-62
2022/08/26 01:26:33;;;;;;;;;5.00;5.00;;;;;23.00;58.65;100928.75;5096147;27;46006;-61
2022/08/26 01:29:05;;;;;;;;;8.25;8.25;;;;;23.01;58.47;100934.00;5030368;27;45530;-61
2022/08/26 01:39:01;;;;;;;;;8.50;8.50;;;;;22.97;57.72;100926.31;5099294;27;45745;-63
2022/08/26 01:41:49;;;;;;;;;6.50;6.50;;;;;22.96;58.75;100927.28;5100055;27;45394;-64
2022/08/26 01:44:20;;;;;;;;;8.50;8.50;;;;;22.83;59.15;100946.19;5038345;27;45595;-61
2022/08/26 01:47:05;;;;;;;;;7.00;7.00;;;;;22.82;58.21;100937.31;5098779;27;45540;-63
2022/08/26 01:49:48;;;;;;;;;8.25;7.00;;;;;22.88;58.15;100935.94;5047873;27;46249;-63
2022/08/26 01:52:45;;;;;;;;;9.00;9.00;;;;;22.80;59.48;100928.53;5063115;27;45621;-61
2022/08/26 01:55:46;;;;;;;;;9.75;8.00;;;;;22.76;59.57;100932.44;5098144;27;45495;-64
2022/08/26 01:58:39;;;;;;;;;11.75;10.75;;;;;22.76;59.06;100940.50;5062695;27;45483;-64
2022/08/26 02:04:19;;;;;;;;;10.00;10.00;;;;;22.78;59.87;100945.72;5047518;28;45524;-63
2022/08/26 02:06:57;;;;;;;;;11.50;10.25;;;;;22.80;58.88;100944.59;5078298;28;45426;-63
2022/08/26 02:12:26;;;;;;;;;11.00;10.00;;;;;22.84;58.75;100942.56;5074261;28;45544;-62
2022/08/26 02:15:04;;;;;;;;;9.00;8.50;;;;;22.86;58.51;100956.66;5078656;28;45162;-63
2022/08/26 02:17:58;;;;;;;;;11.75;10.50;;;;;22.82;59.00;100955.22;5042646;28;45617;-61
2022/08/26 02:20:44;;;;;;;;;10.50;10.50;;;;;22.80;59.14;100959.84;5066355;28;45478;-62
2022/08/26 02:23:16;;;;;;;;;10.25;10.25;;;;;22.81;58.93;100956.19;5024381;28;45565;-62
2022/08/26 02:26:19;;;;;;;;;11.50;11.50;;;;;22.76;58.63;100961.09;5059762;28;45534;-62
2022/08/26 02:29:16;;;;;;;;;9.50;9.50;;;;;22.74;59.11;100941.59;5059079;28;45605;-64
2022/08/26 02:32:02;;;;;;;;;11.75;11.75;;;;;22.62;59.66;100949.66;5060044;28;45598;-64
2022/08/26 02:34:34;;;;;;;;;13.00;13.00;;;;;22.54;59.63;100946.75;5058235;28;45514;-63
2022/08/26 02:37:25;;;;;;;;;12.67;12.00;;;;;22.46;60.45;100954.50;5076572;28;45507;-64
2022/08/26 02:39:59;;;;;;;;;13.33;11.67;;;;;22.46;60.26;100955.38;5025265;28;45595;-63
2022/08/26 02:42:36;;;;;;;;;10.50;10.50;;;;;22.51;59.96;100957.69;5025030;28;45607;-64
2022/08/26 02:45:10;;;;;;;;;12.75;11.75;;;;;22.57;59.47;100951.84;5059673;28;45394;-64
2022/08/26 02:47:47;;;;;;;;;12.67;12.67;;;;;22.60;59.42;100959.63;5042543;28;45564;-64
2022/08/26 02:50:19;;;;;;;;;12.00;12.00;;;;;22.63;59.18;100954.03;5042710;28;45574;-63
2022/08/26 02:53:28;;;;;;;;;14.33;13.00;;;;;22.64;59.28;100961.09;5060397;28;45449;-63
2022/08/26 02:56:08;;;;;;;;;14.33;14.00;;;;;22.64;59.87;100955.72;5041720;28;45615;-62
2022/08/26 02:59:00;;;;;;;;;12.67;12.67;;;;;22.61;59.48;100950.63;5075984;28;45499;-62
2022/08/26 03:01:34;;;;;;;;;16.67;16.67;;;;;22.55;59.41;100956.47;5060297;27;45387;-62
2022/08/26 03:04:08;;;;;;;;;15.50;13.75;;;;;22.44;59.83;100953.81;5079706;27;44991;-64
2022/08/26 03:06:51;;;;;;;;;18.00;18.00;;;;;22.38;60.42;100959.63;5079472;27;46438;-63
2022/08/26 03:09:21;;;;;;;;;15.00;14.67;;;;;22.41;60.47;100962.09;5029635;27;45531;-62
2022/08/26 03:12:01;;;;;;;;;14.67;14.00;;;;;22.32;60.53;100960.13;5061705;27;45481;-61
2022/08/26 03:14:31;;;;;;;;;14.67;13.67;;;;;22.34;60.61;100944.78;5028670;27;45491;-61
2022/08/26 03:17:09;;;;;;;;;15.50;14.00;;;;;22.40;60.27;100945.13;5078464;27;45540;-63
2022/08/26 03:19:44;;;;;;;;;16.33;15.00;;;;;22.41;60.15;100952.22;5029809;27;45566;-64
2022/08/26 03:22:23;;;;;;;;;14.00;13.33;;;;;22.47;59.38;100956.22;5061049;27;45449;-63
2022/08/26 03:27:35;;;;;;;;;20.67;18.33;;;;;22.41;60.35;100941.50;5097033;27;45518;-62
2022/08/26 03:36:07;;;;;;;;;16.00;15.33;;;;;22.48;59.78;100952.56;5096580;27;45448;-64
2022/08/26 03:38:42;;;;;;;;;16.33;15.33;;;;;22.51;60.15;100952.31;5043627;27;46458;-62
2022/08/26 03:41:11;;;;;;;;;16.00;14.33;;;;;22.49;60.25;100948.94;5079263;27;45497;-62
2022/08/26 03:43:49;;;;;;;;;19.00;16.00;;;;;22.50;60.06;100954.16;5096786;27;45430;-64
2022/08/26 03:46:23;;;;;;;;;16.33;16.33;;;;;22.48;59.99;100949.88;5078493;27;45474;-63
2022/08/26 03:49:00;;;;;;;;;17.00;17.00;;;;;22.49;60.01;100948.94;5013428;27;45649;-64
2022/08/26 03:51:40;;;;;;;;;16.00;13.67;;;;;22.53;59.98;100949.53;5044246;27;45524;-63
2022/08/26 03:54:25;;;;;;;;;14.67;14.67;;;;;22.47;60.04;100945.50;5078051;27;45533;-61
2022/08/26 03:59:53;;;;;;;;;16.00;15.67;;;;;22.43;60.39;100946.72;5097354;27;45814;-62
2022/08/26 04:02:27;;;;;;;;;18.00;16.00;;;;;22.43;60.33;100946.72;5078503;27;45342;-62
2022/08/26 04:05:00;;;;;;;;;18.00;18.00;;;;;22.41;60.65;100941.50;5078815;27;45541;-63
2022/08/26 04:07:52;;;;;;;;;14.67;14.00;;;;;22.45;60.48;100948.31;5060926;27;45722;-63
2022/08/26 04:10:31;;;;;;;;;18.00;17.00;;;;;22.52;60.05;100946.00;5044372;27;46333;-62
2022/08/26 04:16:08;;;;;;;;;15.33;15.33;;;;;22.62;59.91;100946.09;5096842;27;45401;-64
2022/08/26 04:19:01;;;;;;;;;19.00;18.67;;;;;22.65;59.62;100945.88;5090184;27;45686;-61
2022/08/26 04:21:52;;;;;;;;;17.67;16.33;;;;;22.59;59.56;100949.88;5050232;27;46928;-61
2022/08/26 04:24:30;;;;;;;;;18.00;16.67;;;;;22.61;59.64;100949.75;5060339;27;45522;-62
2022/08/26 04:27:17;;;;;;;;;16.00;16.00;;;;;22.57;60.06;100953.66;5062643;27;45681;-64
2022/08/26 04:29:50;;;;;;;;;19.67;18.00;;;;;22.52;60.31;100959.41;5092914;27;45443;-62
2022/08/26 04:32:37;;;;;;;;;17.33;17.33;;;;;22.49;60.80;100955.13;5078063;27;46552;-63
2022/08/26 04:35:06;;;;;;;;;17.00;16.00;;;;;22.53;59.95;100952.22;5078117;27;45474;-62
2022/08/26 04:37:59;;;;;;;;;17.67;16.33;;;;;22.49;59.88;100948.94;5060876;27;45565;-64
2022/08/26 04:40:45;;;;;;;;;18.67;18.67;;;;;22.50;60.50;100956.84;5030209;27;45546;-64
2022/08/26 04:43:35;;;;;;;;;20.00;20.00;;;;;22.41;60.28;100957.56;5095261;27;46143;-62
2022/08/26 04:49:23;;;;;;;;;17.67;17.67;;;;;22.48;60.35;100957.94;5099534;27;45521;-63
2022/08/26 04:52:13;;;;;;;;;21.00;19.00;;;;;22.48;60.54;100963.28;4997185;28;45520;-62
2022/08/26 04:57:43;;;;;;;;;19.67;19.00;;;;;22.52;60.26;100970.13;4968998;28;45545;-63
2022/08/26 05:00:14;;;;;;;;;20.67;19.00;;;;;22.48;60.56;100974.84;4980449;28;45546;-63
2022/08/26 05:02:40;;;;;;;;;23.33;19.67;;;;;22.42;60.45;100972.66;4963405;28;45643;-63
2022/08/26 05:05:10;;;;;;;;;21.67;21.67;;;;;22.40;60.77;100971.94;4996195;28;46101;-63
2022/08/26 05:07:42;;;;;;;;;22.00;21.00;;;;;22.35;60.95;100968.75;4980077;28;45512;-64
2022/08/26 05:10:15;;;;;;;;;19.00;18.33;;;;;22.30;61.26;100976.34;4948008;28;45514;-62
2022/08/26 05:12:45;;;;;;;;;21.67;21.33;;;;;22.32;60.60;100979.72;4993275;28;45580;-63
2022/08/26 05:15:24;;;;;;;;;21.33;20.00;;;;;22.32;60.80;100982.41;4963752;28;46447;-63
2022/08/26 05:17:58;;;;;;;;;18.33;18.33;;;;;22.33;60.82;100978.78;4963764;28;45657;-62
2022/08/26 05:20:24;;;;;;;;;25.00;23.67;;;;;22.36;60.69;100988.41;4979908;28;45673;-63
2022/08/26 05:23:11;;;;;;;;;21.33;20.00;;;;;22.35;60.79;100989.34;4996039;28;45664;-62
2022/08/26 05:25:44;;;;;;;;;19.67;19.67;;;;;22.37;60.89;100993.63;4962820;28;46391;-62
2022/08/26 05:28:16;;;;;;;;;21.33;20.00;;;;;22.35;61.32;100997.41;4974238;27;45500;-63
2022/08/26 05:30:46;;;;;;;;;23.33;21.33;;;;;22.38;61.05;100999.81;5046641;27;45507;-64
2022/08/26 05:33:16;;;;;;;;;17.67;17.33;;;;;22.39;60.71;101005.09;5079882;27;45622;-63
2022/08/26 05:35:50;;;;;;;;;17.33;17.00;;;;;22.40;60.55;101001.41;5080416;27;46328;-62
2022/08/26 05:38:43;;;;;;;;;24.67;21.00;;;;;22.36;60.55;101004.47;5071508;27;45520;-62
2022/08/26 05:41:27;;;;;;;;;19.00;18.67;;;;;22.38;60.84;101005.19;5016787;27;45486;-63
2022/08/26 05:44:02;;;;;;;;;23.00;21.67;;;;;22.39;60.61;101009.59;5015379;27;45436;-64
2022/08/26 05:46:35;;;;;;;;;19.00;18.67;;;;;22.33;60.61;101008.25;5081082;27;46573;-63
2022/08/26 05:49:06;;;;;;;;;19.33;17.67;;;;;22.32;60.87;101008.34;5028843;27;45528;-64
2022/08/26 05:52:07;;;;;;;;;18.00;18.00;;;;;22.32;60.62;101017.25;5063159;27;45614;-64
2022/08/26 05:54:44;;;;;;;;;23.00;22.67;;;;;22.31;61.27;101014.69;5033935;28;45560;-63
2022/08/26 05:57:14;;;;;;;;;23.00;21.33;;;;;22.33;60.88;101012.75;5079102;27;46428;-64
2022/08/26 05:59:50;;;;;;;;;23.67;22.33;;;;;22.38;60.54;101016.78;5062890;27;45539;-62
2022/08/26 06:02:27;;;;;;;;;24.00;23.00;;;;;22.29;60.88;101012.13;5062454;27;46498;-61
2022/08/26 06:05:09;;;;;;;;;23.00;22.33;;;;;22.31;60.63;101012.88;5046033;27;45523;-64
2022/08/26 06:10:29;;;;;;;;;22.00;21.00;;;;;22.27;60.58;101016.75;5098259;27;45486;-63
2022/08/26 06:13:02;;;;;;;;;20.67;18.67;;;;;22.24;60.82;101017.84;5046106;27;45485;-62
2022/08/26 06:15:38;;;;;;;;;22.67;19.67;;;;;22.18;61.07;101026.38;5092046;27;45449;-63
2022/08/26 06:18:07;;;;;;;;;26.00;23.67;;;;;22.19;61.26;101011.13;5080007;27;45430;-62
2022/08/26 06:20:42;;;;;;;;;20.33;20.00;;;;;22.17;61.26;101016.59;5045627;27;45533;-62
2022/08/26 06:26:02;;;;;;;;;25.00;23.67;;;;;22.15;61.10;101015.00;5098389;27;45461;-64
2022/08/26 06:28:37;;;;;;;;;23.00;20.33;;;;;22.15;60.90;101017.69;5098381;27;45536;-62
2022/08/26 06:31:06;;;;;;;;;18.00;18.00;;;;;22.14;61.16;101013.28;5046617;27;45544;-63
2022/08/26 06:33:50;;;;;;;;;24.00;24.00;;;;;22.10;61.41;101014.50;5013700;27;45546;-63
2022/08/26 06:36:34;;;;;;;;;17.33;17.33;;;;;22.15;61.02;101015.84;5030944;27;45587;-64
2022/08/26 06:39:13;;;;;;;;;18.67;18.67;;;;;22.18;60.85;101009.41;5029023;27;46876;-64
2022/08/26 06:44:50;;;;;;;;;20.33;19.00;;;;;22.25;60.59;101019.56;5097810;27;45535;-64
2022/08/26 06:47:40;;;;;;;;;19.33;19.33;;;;;22.25;60.40;101018.72;5098185;27;45548;-63
2022/08/26 06:50:09;;;;;;;;;17.67;17.67;;;;;22.28;60.13;101013.97;5078997;27;46589;-63
2022/08/26 06:52:56;;;;;;;;;16.67;16.67;;;;;22.30;60.18;101019.22;5079746;27;45454;-63
2022/08/26 06:55:30;;;;;;;;;17.33;17.33;;;;;22.28;60.14;101022.00;5098324;27;45449;-64
2022/08/26 06:58:18;;;;;;;;;16.00;16.00;;;;;22.31;60.04;101020.06;5045264;27;45452;-64
2022/08/26 07:01:43;;;;;;;;;19.00;17.67;;;;;22.30;59.86;101023.69;5089091;27;45660;-62
2022/08/26 07:04:27;;;;;;;;;20.33;20.33;;;;;22.27;59.68;101028.34;5058997;28;45450;-62
2022/08/26 07:06:53;;;;;;;;;24.00;22.33;;;;;22.17;60.07;101026.47;5042058;28;45460;-64
2022/08/26 07:09:21;;;;;;;;;16.33;16.33;;;;;22.21;59.83;101027.94;5076905;28;45575;-62
2022/08/26 07:12:04;;;;;;;;;17.67;17.33;;;;;22.27;59.63;101022.97;5077053;28;45458;-64
2022/08/26 07:14:58;;;;;;;;;21.67;19.00;;;;;22.30;59.48;101021.03;5073777;28;46130;-63
2022/08/26 07:21:17;;;;;;;;;18.33;16.00;;;;;22.44;59.37;101024.34;5076963;28;45466;-62
2022/08/26 07:23:49;;;;;;;;;18.67;18.67;;;;;22.32;59.20;101024.44;5078060;28;46062;-64
2022/08/26 07:26:30;;;;;;;;;20.00;17.67;;;;;22.41;59.24;101023.72;5059380;28;45550;-64
2022/08/26 07:29:21;;;;;;;;;16.67;16.00;;;;;22.50;59.01;101029.22;5059551;28;45410;-63
2022/08/26 07:31:51;;;;;;;;;18.67;17.67;;;;;22.53;58.61;101022.75;5041588;28;45605;-64
2022/08/26 07:34:27;;;;;;;;;17.33;16.33;;;;;22.51;58.66;101027.38;5041645;28;45584;-63
2022/08/26 07:37:28;;;;;;;;;16.33;14.67;;;;;22.44;58.74;101036.91;5042272;28;45554;-64
2022/08/26 07:40:08;;;;;;;;;19.33;19.00;;;;;22.47;59.10;101031.28;5041883;28;45494;-65
2022/08/26 07:42:38;;;;;;;;;17.67;15.67;;;;;22.54;58.41;101035.19;5058702;28;45521;-64
2022/08/26 07:45:09;;;;;;;;;17.33;16.33;;;;;22.50;58.42;101036.41;5058467;28;46298;-63
2022/08/26 07:47:41;;;;;;;;;14.00;14.00;;;;;22.60;58.28;101039.22;5058814;28;45498;-61
2022/08/26 07:50:11;;;;;;;;;17.00;15.00;;;;;22.62;57.79;101037.25;5025532;28;45610;-62
2022/08/26 07:52:50;;;;;;;;;17.00;14.67;;;;;22.68;57.82;101028.75;5058519;28;45537;-62
2022/08/26 07:55:42;;;;;;;;;20.33;19.33;;;;;22.71;57.50;101032.03;5050736;28;45544;-61
2022/08/26 07:58:20;;;;;;;;;16.67;14.00;;;;;22.78;57.29;101034.22;5057655;28;45518;-62
2022/08/26 08:01:16;;;;;;;;;16.33;16.33;;;;;22.75;56.98;101031.78;5040373;28;45600;-63
2022/08/26 08:03:50;;;;;;;;;17.67;16.67;;;;;22.74;57.08;101036.28;5060560;27;44958;-62
2022/08/26 08:06:18;;;;;;;;;16.00;16.00;;;;;22.77;56.83;101037.88;5096530;27;45522;-63
2022/08/26 08:08:52;;;;;;;;;15.33;13.67;;;;;22.83;56.67;101037.38;5096274;27;45568;-62
2022/08/26 08:11:27;;;;;;;;;14.67;13.00;;;;;22.91;56.46;101038.47;5079215;27;45462;-64
2022/08/26 08:14:06;;;;;;;;;15.33;15.00;;;;;22.95;56.24;101031.03;5079078;27;45534;-63
2022/08/26 08:16:52;;;;;;;;;16.33;16.00;;;;;22.97;56.21;101034.50;5045001;27;46273;-62
2022/08/26 08:19:35;;;;;;;;;50.00;41.00;;;;;22.99;56.19;101031.66;5088260;27;45387;-64
2022/08/26 08:22:05;;;;;;;;;17.67;17.00;;;;;23.04;56.03;101035.69;5064743;27;45565;-64
2022/08/26 08:24:43;;;;;;;;;18.00;18.00;;;;;22.96;56.38;101035.44;5100407;27;45504;-64
2022/08/26 08:27:34;;;;;;;;;17.33;16.00;;;;;22.89;56.76;101040.44;5066008;27;45427;-62
2022/08/26 08:30:07;;;;;;;;;16.67;16.67;;;;;22.87;56.80;101030.81;5082259;27;45490;-63
2022/08/26 08:32:44;;;;;;;;;14.33;12.67;;;;;22.96;56.72;101031.88;5090755;27;45355;-62
2022/08/26 08:35:21;;;;;;;;;17.67;17.67;;;;;22.99;56.58;101031.66;5012672;28;45476;-64
2022/08/26 08:37:58;;;;;;;;;16.67;16.33;;;;;23.01;56.49;101027.03;5046103;27;45545;-63
2022/08/26 08:40:36;;;;;;;;;20.00;17.50;;;;;23.01;56.07;101027.03;5047883;27;45453;-62
2022/08/26 08:43:23;;;;;;;;;18.00;17.33;;;;;22.99;56.34;101028.97;5100268;27;45509;-61
2022/08/26 08:45:56;;;;;;;;;18.33;16.67;;;;;23.01;56.18;101033.25;5013851;27;45530;-62
2022/08/26 08:48:48;;;;;;;;;19.00;18.00;;;;;23.05;56.09;101026.69;5100444;27;45564;-61
2022/08/26 08:52:15;;;;;;;;;17.67;17.67;;;;;22.99;56.51;101031.66;5085402;27;45508;-64
2022/08/26 08:54:48;;;;;;;;;15.67;14.67;;;;;22.99;56.13;101028.97;5082011;27;45474;-64
2022/08/26 08:57:50;;;;;;;;;17.67;16.67;;;;;23.03;56.26;101030.47;5059452;27;45528;-64
2022/08/26 09:00:23;;;;;;;;;15.33;15.33;;;;;23.04;56.07;101022.28;5039482;27;45597;-62
2022/08/26 09:03:37;;;;;;;;;16.67;14.67;;;;;23.16;55.50;101023.13;5061902;27;45735;-62
2022/08/26 09:06:17;;;;;;;;;15.67;14.67;;;;;23.35;55.21;101031.34;4983498;28;45591;-64
2022/08/26 09:09:03;;;;;;;;;15.00;12.33;;;;;23.49;54.75;101021.31;5000536;28;45624;-64
2022/08/26 09:11:50;;;;;;;;;15.33;14.33;;;;;23.59;54.20;101016.88;4954064;28;46334;-63
2022/08/26 09:14:28;;;;;;;;;12.00;11.00;;;;;23.68;54.16;101026.00;4983718;28;45524;-63
2022/08/26 09:20:34;;;;;;;;;15.33;15.33;;;;;23.80;52.66;101019.59;5016492;28;45474;-61
2022/08/26 09:23:14;;;;;;;;;11.00;8.75;;;;;23.85;52.20;101021.91;4983146;28;45564;-62
2022/08/26 09:25:51;;;;;;;;;8.25;8.25;;;;;23.86;52.66;101024.47;4999500;28;45555;-64
2022/08/26 09:28:29;;;;;;;;;13.25;11.25;;;;;23.87;52.82;101023.50;5016477;28;45834;-63
2022/08/26 09:31:44;;;;;;;;;13.50;12.75;;;;;23.85;52.92;101019.22;4999839;28;45607;-61
2022/08/26 09:34:36;;;;;;;;;13.00;13.00;;;;;23.81;53.06;101021.34;4999290;28;47222;-63
2022/08/26 09:37:05;;;;;;;;;9.00;9.00;;;;;23.90;52.82;101017.84;5031909;27;45520;-63
2022/08/26 09:39:36;;;;;;;;;12.00;12.00;;;;;23.94;52.54;101011.25;5046913;27;45575;-64
2022/08/26 09:42:26;;;;;;;;;11.00;9.75;;;;;23.98;51.91;101012.69;5099508;27;45512;-63
2022/08/26 09:45:12;;;;;;;;;9.75;9.75;;;;;24.03;51.96;101018.50;5062377;27;45603;-65
2022/08/26 09:48:01;;;;;;;;;13.50;12.75;;;;;24.12;51.29;101016.03;5081191;27;45770;-62
2022/08/26 09:50:57;;;;;;;;;8.75;8.75;;;;;24.20;51.47;101022.44;5080782;27;45492;-63
2022/08/26 09:57:10;;;;;;;;;11.00;11.00;;;;;24.19;52.19;101015.38;5057955;27;45902;-63
2022/08/26 10:00:00;;;;;;;;;10.25;10.25;;;;;24.16;52.46;101021.00;5030447;27;45594;-65
2022/08/26 10:05:47;;;;;;;;;17.33;17.33;;;;;24.17;52.42;101011.94;5099194;27;45436;-63
2022/08/26 10:08:45;;;;;;;;;13.33;13.33;;;;;24.20;52.20;101011.69;5062662;27;45598;-62
2022/08/26 10:21:36;;;;;;;;;12.50;12.50;;;;;24.24;52.17;101009.59;5008199;28;45412;-64
2022/08/26 10:37:56;;;;;;;;;12.00;11.00;;;;;24.52;49.86;101004.53;5013851;28;45528;-64
2022/08/26 10:40:53;;;;;;;;;10.25;10.25;;;;;24.55;49.87;101001.56;4999600;28;45563;-64
2022/08/26 10:43:36;;;;;;;;;12.00;11.00;;;;;24.45;49.65;100999.69;5015229;28;44944;-64
2022/08/26 10:46:23;;;;;;;;;11.00;10.75;;;;;24.36;49.40;100999.59;4999405;28;45622;-61
2022/08/26 10:52:45;;;;;;;;;16.33;16.33;;;;;24.37;49.54;101004.03;5097932;27;45576;-63
2022/08/26 10:55:49;;;;;;;;;15.00;14.50;;;;;24.38;49.43;101000.34;5032351;28;45521;-62
2022/08/26 10:59:13;;;;;;;;;9.50;9.50;;;;;24.45;48.71;100996.16;5058660;28;45484;-63
2022/08/26 11:02:21;;;;;;;;;9.00;9.00;;;;;24.56;48.52;100989.84;4978805;28;45517;-63
2022/08/26 11:05:25;;;;;;;;;9.00;9.00;;;;;24.71;48.16;100988.47;4962127;28;45533;-64
2022/08/26 11:08:31;;;;;;;;;11.50;9.75;;;;;24.77;47.54;101000.50;4958205;28;45481;-65
2022/08/26 11:11:35;;;;;;;;;8.00;7.00;;;;;24.74;46.83;100988.19;4978015;28;45815;-64
2022/08/26 11:14:40;;;;;;;;;8.25;7.25;;;;;24.62;46.92;100998.22;4977917;28;45536;-64
2022/08/26 11:18:03;;;;;;;;;9.00;8.25;;;;;24.55;47.10;100982.75;4961510;28;45533;-63
2022/08/26 11:20:54;;;;;;;;;11.75;11.75;;;;;24.55;47.48;100990.81;4960757;28;45664;-64
2022/08/26 11:23:51;;;;;;;;;14.00;13.00;;;;;24.62;47.91;100984.75;5059757;27;46164;-63
2022/08/26 11:26:33;;;;;;;;;12.75;9.50;;;;;24.66;47.06;100985.31;5029834;27;45513;-62
2022/08/26 11:29:03;;;;;;;;;7.50;7.50;;;;;24.67;47.62;100984.34;5097714;27;45489;-64
2022/08/26 11:32:01;;;;;;;;;10.00;10.00;;;;;24.80;47.47;100981.44;5062572;27;45442;-63
2022/08/26 11:35:03;;;;;;;;;9.00;9.00;;;;;24.89;47.53;100976.06;5025319;28;46171;-62
2022/08/26 11:38:04;;;;;;;;;12.50;12.50;;;;;25.02;47.15;100975.81;5053022;28;46070;-64
2022/08/26 11:41:05;;;;;;;;;7.00;7.00;;;;;25.00;46.47;100972.41;5016431;28;45541;-62
2022/08/26 11:43:37;;;;;;;;;7.00;7.00;;;;;24.98;45.54;100978.91;5012070;28;45613;-65
2022/08/26 11:46:23;;;;;;;;;9.00;7.50;;;;;24.94;46.26;100972.97;5063038;27;46200;-62
2022/08/26 11:49:15;;;;;;;;;7.25;7.25;;;;;24.97;46.37;100970.00;5046506;27;45514;-62
2022/08/26 11:52:20;;;;;;;;;9.25;8.00;;;;;25.05;45.60;100969.31;5098483;27;45488;-63
2022/08/26 11:58:13;;;;;;;;;7.00;6.00;;;;;25.17;45.23;100957.44;5089218;27;45516;-63
2022/08/26 12:01:06;;;;;;;;;11.00;9.75;;;;;25.28;45.33;100965.41;5083206;27;45548;-62
2022/08/26 12:04:10;;;;;;;;;10.00;9.00;;;;;25.43;45.22;100960.44;5082728;27;45535;-62
2022/08/26 12:07:08;;;;;;;;;9.00;9.00;;;;;25.50;44.91;100958.88;5050381;27;45553;-63
2022/08/26 12:10:00;;;;;;;;;10.00;8.00;;;;;25.47;45.13;100950.22;5047875;27;46080;-64
2022/08/26 12:12:54;;;;;;;;;8.25;8.25;;;;;25.53;44.66;100946.97;5048149;27;45628;-63
2022/08/26 12:18:45;;;;;;;;;7.25;7.25;;;;;25.45;44.23;100936.91;5100257;27;45514;-64
2022/08/26 12:21:36;;;;;;;;;5.75;4.50;;;;;25.39;43.84;100939.31;5047629;27;45552;-64
2022/08/26 12:24:07;;;;;;;;;6.50;6.50;;;;;25.34;44.04;100931.69;5081881;27;45395;-63
2022/08/26 12:26:38;;;;;;;;;6.00;6.00;;;;;25.53;44.34;100925.44;5082784;27;45477;-64
2022/08/26 12:29:30;;;;;;;;;7.75;7.75;;;;;25.86;43.86;100928.66;5082557;27;45762;-63
2022/08/26 12:32:18;;;;;;;;;8.50;8.50;;;;;26.19;43.04;100930.84;5048033;27;46302;-64
2022/08/26 12:35:01;;;;;;;;;6.00;6.00;;;;;26.45;43.17;100927.44;5045555;27;45485;-63
2022/08/26 12:37:36;;;;;;;;;6.00;6.00;;;;;26.56;41.71;100923.75;5082480;27;45621;-65
2022/08/26 12:40:44;;;;;;;;;6.00;4.75;;;;;26.52;41.05;100917.81;5066848;27;45684;-65
2022/08/26 12:43:14;;;;;;;;;4.00;3.00;;;;;26.50;40.93;100917.06;5081520;27;45507;-66
2022/08/26 12:46:07;;;;;;;;;4.80;4.80;;;;;26.53;40.58;100921.34;5082146;27;45549;-63
2022/08/26 12:55:27;;;;;;;;;5.00;5.00;;;;;26.91;38.75;100906.75;5100105;27;45665;-63
2022/08/26 12:58:41;;;;;;;;;6.20;6.20;;;;;27.05;38.94;100899.97;5071302;27;45580;-63
2022/08/26 13:01:28;;;;;;;;;5.75;5.75;;;;;27.20;38.88;100906.56;5101068;27;45516;-64
2022/08/26 13:07:11;;;;;;;;;7.50;6.25;;;;;27.58;38.43;100887.47;5102033;27;45767;-64
2022/08/26 13:10:07;;;;;;;;;4.60;4.60;;;;;27.74;38.34;100895.69;5084195;27;45362;-64
2022/08/26 13:12:39;;;;;;;;;6.00;6.00;;;;;27.88;38.24;100884.31;5034877;27;45509;-64
2022/08/26 13:15:05;;;;;;;;;5.75;4.50;;;;;28.04;37.54;100883.53;5068036;27;45687;-63
2022/08/26 13:18:10;;;;;;;;;4.00;4.00;;;;;28.13;37.94;100885.31;5101164;27;45440;-64
2022/08/26 13:21:00;;;;;;;;;6.00;6.00;;;;;28.34;37.49;100890.28;5066205;27;45509;-64
2022/08/26 13:23:30;;;;;;;;;4.20;4.20;;;;;28.45;37.56;100878.34;5032210;27;45652;-63
2022/08/26 13:26:00;;;;;;;;;6.00;6.00;;;;;28.28;37.17;100874.69;5066343;27;45466;-64
2022/08/26 13:28:30;;;;;;;;;6.25;6.00;;;;;27.96;37.55;100873.53;5083504;27;46510;-64
2022/08/26 13:31:16;;;;;;;;;5.20;5.20;;;;;27.68;38.36;100866.59;5049123;27;45406;-62
2022/08/26 13:33:48;;;;;;;;;7.00;7.00;;;;;27.68;37.49;100858.50;5035207;27;45495;-63
2022/08/26 13:36:59;;;;;;;;;6.25;6.25;;;;;27.58;37.32;100863.16;5066231;27;45518;-64
2022/08/26 13:39:40;;;;;;;;;4.50;4.50;;;;;27.36;37.64;100846.44;5048169;27;45585;-64
2022/08/26 13:42:10;;;;;;;;;6.40;6.40;;;;;27.58;37.86;100846.94;5062254;28;45429;-64
2022/08/26 13:44:49;;;;;;;;;6.20;6.20;;;;;27.87;36.87;100852.03;5096926;27;45323;-63
2022/08/26 13:47:26;;;;;;;;;5.00;5.00;;;;;27.98;36.95;100849.06;5064155;27;45514;-64
2022/08/26 13:50:13;;;;;;;;;5.00;5.00;;;;;28.10;37.13;100849.59;5082826;27;45488;-63
2022/08/26 13:52:46;;;;;;;;;8.20;5.80;;;;;28.26;37.46;100851.53;5082409;27;45361;-64
2022/08/26 13:55:21;;;;;;;;;3.80;3.80;;;;;28.35;36.96;100848.69;5083260;27;45383;-64
2022/08/26 13:57:46;;;;;;;;;5.50;5.25;;;;;28.40;37.23;100845.50;5100603;27;45407;-64
2022/08/26 14:00:17;;;;;;;;;5.00;4.00;;;;;28.57;37.34;100846.44;5100965;27;45560;-64
2022/08/26 14:02:53;;;;;;;;;6.20;6.20;;;;;28.70;36.73;100849.50;5065318;27;45519;-65
2022/08/26 14:05:32;;;;;;;;;4.80;4.80;;;;;28.82;36.24;100850.00;5049470;27;45459;-64
2022/08/26 14:08:08;;;;;;;;;4.25;4.25;;;;;28.77;36.39;100836.97;5082979;27;45386;-65
2022/08/26 14:10:49;;;;;;;;;5.40;5.40;;;;;28.82;36.20;100841.91;5083135;27;45482;-65
2022/08/26 14:13:22;;;;;;;;;6.20;4.60;;;;;28.68;36.01;100834.44;5036865;27;45516;-63
2022/08/26 14:16:16;;;;;;;;;4.40;4.40;;;;;28.66;35.79;100825.63;5032671;27;45478;-65
2022/08/26 14:18:51;;;;;;;;;4.75;4.75;;;;;28.78;34.63;100835.13;5082375;27;45507;-65
2022/08/26 14:35:15;;;;;;;;;5.40;4.00;;;;;28.70;35.06;100817.03;5100998;27;45509;-65
2022/08/26 14:38:06;;;;;;;;;5.00;5.00;;;;;28.44;35.07;100808.19;5083419;27;45410;-63
2022/08/26 14:40:43;;;;;;;;;3.20;3.20;;;;;28.25;35.34;100807.41;5077399;27;45551;-65
2022/08/26 14:43:30;;;;;;;;;5.25;4.00;;;;;28.13;35.93;100800.59;5078515;28;45451;-62